Time;durP1;ratioP1;P1;durP2;ratioP2;P2;SDS_P1;SDS_P2;PMS_P1;PMS_P2;Temp;Humidity;BMP_temperature;BMP_pressure;BME280_temperature;BME280_humidity;BME280_pressure;Samples;Min_cycle;Max_cycle;Signal;HPM_P1;HPM_P2
2023/06/14 00:01:52;;;;;;;3.17;2.97;;;;;;;;;;5074613;28;20205;-64
2023/06/14 00:04:20;;;;;;;3.28;3.08;;;;;;;;;;5071168;28;20202;-64
2023/06/14 00:06:48;;;;;;;4.13;3.08;;;;;;;;;;5076035;28;20297;-64
2023/06/14 00:09:17;;;;;;;3.47;3.17;;;;;;;;;;5079533;28;20202;-64
2023/06/14 00:11:45;;;;;;;2.97;2.78;;;;;;;;;;5074380;28;20215;-66
2023/06/14 00:14:13;;;;;;;4.45;3.15;;;;;;;;;;5072453;28;20203;-66
2023/06/14 00:16:42;;;;;;;3.60;3.22;;;;;;;;;;5069978;28;20203;-66
2023/06/14 00:19:10;;;;;;;3.50;3.20;;;;;;;;;;5073510;28;20203;-66
2023/06/14 00:21:37;;;;;;;3.63;3.15;;;;;;;;;;5065716;28;20224;-66
2023/06/14 00:24:05;;;;;;;3.58;3.28;;;;;;;;;;5062952;28;20271;-66
2023/06/14 00:26:32;;;;;;;3.65;3.35;;;;;;;;;;5069895;28;20199;-66
2023/06/14 00:29:01;;;;;;;5.88;3.15;;;;;;;;;;5072862;28;20198;-66
2023/06/14 00:31:28;;;;;;;3.50;2.97;;;;;;;;;;5071224;28;20206;-66
2023/06/14 00:33:55;;;;;;;3.40;3.10;;;;;;;;;;5075820;28;20206;-66
2023/06/14 00:36:22;;;;;;;3.60;2.92;;;;;;;;;;5072746;28;20293;-66
2023/06/14 00:38:49;;;;;;;3.95;2.85;;;;;;;;;;5070189;28;20199;-66
2023/06/14 00:41:16;;;;;;;4.85;3.15;;;;;;;;;;5071733;28;20205;-66
2023/06/14 00:43:43;;;;;;;3.17;2.88;;;;;;;;;;5073646;28;20297;-66
2023/06/14 00:46:12;;;;;;;4.97;3.20;;;;;;;;;;5068969;28;20214;-66
2023/06/14 00:48:40;;;;;;;3.20;2.97;;;;;;;;;;5075558;28;20211;-66
2023/06/14 00:51:07;;;;;;;4.70;3.00;;;;;;;;;;5074225;28;20198;-66
2023/06/14 00:53:35;;;;;;;3.70;3.40;;;;;;;;;;5077563;28;20234;-66
2023/06/14 00:56:02;;;;;;;4.40;3.50;;;;;;;;;;5078239;28;20202;-66
2023/06/14 00:58:30;;;;;;;3.20;2.90;;;;;;;;;;5078499;28;20206;-65
2023/06/14 01:00:57;;;;;;;3.10;2.90;;;;;;;;;;5081206;28;20203;-66
2023/06/14 01:03:28;;;;;;;3.65;3.13;;;;;;;;;;5074267;28;20203;-65
2023/06/14 01:06:02;;;;;;;3.40;3.10;;;;;;;;;;5073484;28;20202;-65
2023/06/14 01:08:33;;;;;;;7.10;3.40;;;;;;;;;;5077031;28;20225;-66
2023/06/14 01:11:05;;;;;;;3.47;3.17;;;;;;;;;;5077439;28;20209;-66
2023/06/14 01:13:34;;;;;;;3.70;3.40;;;;;;;;;;5081397;28;20256;-65
2023/06/14 01:16:02;;;;;;;3.83;3.10;;;;;;;;;;5075599;28;20332;-66
2023/06/14 01:18:32;;;;;;;3.30;3.00;;;;;;;;;;5082189;28;20206;-66
2023/06/14 01:20:59;;;;;;;3.92;3.03;;;;;;;;;;5072564;28;20238;-65
2023/06/14 01:23:32;;;;;;;3.45;3.15;;;;;;;;;;5071988;28;20199;-65
2023/06/14 01:25:59;;;;;;;4.85;3.30;;;;;;;;;;5072275;28;20253;-65
2023/06/14 01:28:31;;;;;;;3.78;3.20;;;;;;;;;;5076400;28;20202;-66
2023/06/14 01:31:03;;;;;;;4.72;3.10;;;;;;;;;;5072110;28;20214;-66
2023/06/14 01:33:31;;;;;;;3.28;2.90;;;;;;;;;;5081508;28;20249;-65
2023/06/14 01:35:58;;;;;;;3.58;2.90;;;;;;;;;;5074105;28;20246;-66
2023/06/14 01:38:28;;;;;;;3.88;3.25;;;;;;;;;;5082420;28;20224;-65
2023/06/14 01:40:56;;;;;;;3.80;3.50;;;;;;;;;;5083215;28;20302;-65
2023/06/14 01:43:24;;;;;;;6.10;3.35;;;;;;;;;;5077115;28;20199;-65
2023/06/14 01:45:53;;;;;;;4.80;3.20;;;;;;;;;;5073296;28;20217;-65
2023/06/14 01:48:21;;;;;;;3.42;3.13;;;;;;;;;;5074936;28;20203;-66
2023/06/14 01:50:49;;;;;;;4.68;3.15;;;;;;;;;;5074994;28;20203;-65
2023/06/14 01:53:16;;;;;;;4.10;3.00;;;;;;;;;;5076200;28;20253;-66
2023/06/14 01:55:48;;;;;;;3.47;3.17;;;;;;;;;;5079013;28;20216;-66
2023/06/14 01:58:16;;;;;;;4.30;3.50;;;;;;;;;;5082037;28;20205;-66
2023/06/14 02:00:45;;;;;;;6.13;3.28;;;;;;;;;;5072963;28;20217;-65
2023/06/14 02:03:12;;;;;;;3.38;3.08;;;;;;;;;;5073281;28;20208;-66
2023/06/14 02:05:40;;;;;;;3.53;3.22;;;;;;;;;;5076793;28;20206;-65
2023/06/14 02:08:08;;;;;;;3.60;3.30;;;;;;;;;;5079232;28;20214;-66
2023/06/14 02:10:35;;;;;;;3.10;2.90;;;;;;;;;;5073044;28;20210;-66
2023/06/14 02:13:03;;;;;;;3.28;2.92;;;;;;;;;;5071801;28;20231;-65
2023/06/14 02:15:33;;;;;;;3.58;3.28;;;;;;;;;;5077640;28;20207;-66
2023/06/14 02:18:01;;;;;;;4.75;3.20;;;;;;;;;;5074282;28;20225;-65
2023/06/14 02:20:28;;;;;;;3.72;3.05;;;;;;;;;;5072529;28;20203;-65
2023/06/14 02:22:55;;;;;;;3.67;2.90;;;;;;;;;;5078040;28;20199;-66
2023/06/14 02:25:23;;;;;;;3.63;3.20;;;;;;;;;;5088735;28;20198;-65
2023/06/14 02:27:50;;;;;;;3.67;3.30;;;;;;;;;;5071529;28;20229;-65
2023/06/14 02:30:19;;;;;;;3.38;3.08;;;;;;;;;;5074312;28;20237;-65
2023/06/14 02:32:48;;;;;;;3.67;3.30;;;;;;;;;;5070947;28;20223;-66
2023/06/14 02:35:15;;;;;;;3.53;3.22;;;;;;;;;;5071231;28;20231;-65
2023/06/14 02:37:42;;;;;;;3.47;3.13;;;;;;;;;;5065569;28;20202;-66
2023/06/14 02:40:10;;;;;;;3.20;2.90;;;;;;;;;;5074125;28;20209;-65
2023/06/14 02:42:37;;;;;;;3.33;3.08;;;;;;;;;;5073864;28;20290;-65
2023/06/14 02:45:04;;;;;;;3.78;3.47;;;;;;;;;;5067379;28;20203;-65
2023/06/14 02:47:33;;;;;;;4.57;3.60;;;;;;;;;;5073046;28;20272;-65
2023/06/14 02:50:00;;;;;;;4.38;3.15;;;;;;;;;;5067450;28;20211;-65
2023/06/14 02:52:27;;;;;;;4.57;3.30;;;;;;;;;;5072006;28;20226;-65
2023/06/14 02:54:55;;;;;;;5.63;3.60;;;;;;;;;;5073553;28;20210;-65
2023/06/14 02:57:22;;;;;;;4.20;3.35;;;;;;;;;;5076454;28;20206;-65
2023/06/14 02:59:50;;;;;;;3.38;3.08;;;;;;;;;;5071667;28;20206;-65
2023/06/14 03:02:17;;;;;;;6.68;3.58;;;;;;;;;;5073135;28;20302;-65
2023/06/14 03:04:46;;;;;;;3.40;3.13;;;;;;;;;;5071281;28;20206;-65
2023/06/14 03:07:13;;;;;;;4.25;3.58;;;;;;;;;;5071360;28;20209;-66
2023/06/14 03:09:41;;;;;;;3.72;3.42;;;;;;;;;;5068320;28;20264;-65
2023/06/14 03:12:09;;;;;;;5.90;3.38;;;;;;;;;;5072308;28;20210;-65
2023/06/14 03:14:36;;;;;;;3.83;3.08;;;;;;;;;;5072248;28;20293;-65
2023/06/14 03:17:04;;;;;;;3.03;2.83;;;;;;;;;;5070299;28;20206;-66
2023/06/14 03:19:31;;;;;;;4.18;3.38;;;;;;;;;;5075259;28;20210;-65
2023/06/14 03:22:00;;;;;;;3.38;3.08;;;;;;;;;;5072716;28;20199;-65
2023/06/14 03:24:28;;;;;;;3.60;3.30;;;;;;;;;;5069634;28;20225;-65
2023/06/14 03:26:56;;;;;;;5.10;3.50;;;;;;;;;;5071604;28;20224;-65
2023/06/14 03:29:23;;;;;;;3.22;2.92;;;;;;;;;;5071306;28;20202;-65
2023/06/14 03:32:00;;;;;;;3.67;3.20;;;;;;;;;;5072002;28;20205;-65
2023/06/14 03:34:28;;;;;;;3.30;3.00;;;;;;;;;;5074209;28;20233;-65
2023/06/14 03:36:55;;;;;;;3.70;3.40;;;;;;;;;;5072480;28;20245;-65
2023/06/14 03:39:23;;;;;;;3.67;3.40;;;;;;;;;;5059020;28;20242;-65
2023/06/14 03:41:51;;;;;;;5.90;3.60;;;;;;;;;;5068374;28;20199;-65
2023/06/14 03:44:18;;;;;;;3.90;3.58;;;;;;;;;;5071767;28;20207;-65
2023/06/14 03:46:46;;;;;;;4.22;3.63;;;;;;;;;;5078341;28;20581;-65
2023/06/14 03:49:13;;;;;;;3.63;3.33;;;;;;;;;;5071525;28;20289;-65
2023/06/14 03:51:40;;;;;;;4.05;3.70;;;;;;;;;;5075703;28;20202;-65
2023/06/14 03:54:07;;;;;;;3.67;3.38;;;;;;;;;;5073320;28;20226;-65
2023/06/14 03:56:36;;;;;;;3.90;3.50;;;;;;;;;;5073416;28;20214;-65
2023/06/14 03:59:03;;;;;;;3.95;3.60;;;;;;;;;;5077013;28;20213;-65
2023/06/14 04:01:31;;;;;;;4.50;3.40;;;;;;;;;;5073156;28;20199;-65
2023/06/14 04:03:58;;;;;;;6.00;3.63;;;;;;;;;;5065825;28;20206;-65
2023/06/14 04:06:32;;;;;;;6.38;3.50;;;;;;;;;;5066499;28;20195;-65
2023/06/14 04:11:29;;;;;;;4.00;3.70;;;;;;;;;;5064481;28;20222;-65
2023/06/14 04:13:58;;;;;;;5.07;3.47;;;;;;;;;;5061129;28;20340;-66
2023/06/14 04:16:25;;;;;;;3.67;3.38;;;;;;;;;;5062927;28;20213;-65
2023/06/14 04:18:53;;;;;;;5.32;3.35;;;;;;;;;;5063954;28;20204;-65
2023/06/14 04:21:20;;;;;;;4.03;3.53;;;;;;;;;;5063631;28;20207;-66
2023/06/14 04:23:48;;;;;;;4.72;3.60;;;;;;;;;;5064846;28;20228;-65
2023/06/14 04:26:15;;;;;;;4.38;3.63;;;;;;;;;;5068179;28;20213;-66
2023/06/14 04:28:46;;;;;;;4.43;3.40;;;;;;;;;;5064160;28;20199;-65
2023/06/14 04:31:16;;;;;;;3.53;3.22;;;;;;;;;;5063861;28;20211;-66
2023/06/14 04:33:45;;;;;;;3.88;3.50;;;;;;;;;;5060522;28;20276;-65
2023/06/14 04:36:12;;;;;;;4.22;3.50;;;;;;;;;;5065446;28;20202;-66
2023/06/14 04:38:41;;;;;;;4.57;3.90;;;;;;;;;;5064836;28;20301;-66
2023/06/14 04:41:11;;;;;;;3.70;3.40;;;;;;;;;;5059319;28;20216;-66
2023/06/14 04:43:38;;;;;;;5.05;3.85;;;;;;;;;;5059629;28;20280;-66
2023/06/14 04:46:10;;;;;;;4.18;3.80;;;;;;;;;;5061281;28;20281;-66
2023/06/14 04:48:40;;;;;;;3.58;3.28;;;;;;;;;;5060733;28;20282;-66
2023/06/14 04:51:08;;;;;;;4.00;3.70;;;;;;;;;;5061239;28;20206;-65
2023/06/14 04:53:35;;;;;;;4.05;3.65;;;;;;;;;;5061741;28;20249;-65
2023/06/14 04:56:02;;;;;;;4.00;3.70;;;;;;;;;;5063700;28;20203;-66
2023/06/14 04:58:30;;;;;;;4.05;3.55;;;;;;;;;;5062582;28;20252;-66
2023/06/14 05:00:59;;;;;;;3.67;3.33;;;;;;;;;;5064760;28;20211;-66
2023/06/14 05:03:26;;;;;;;4.22;3.40;;;;;;;;;;5057560;28;20196;-66
2023/06/14 05:05:54;;;;;;;3.90;3.60;;;;;;;;;;5062958;28;20234;-66
2023/06/14 05:08:24;;;;;;;4.55;3.72;;;;;;;;;;5059392;28;20211;-66
2023/06/14 05:10:51;;;;;;;5.18;3.40;;;;;;;;;;5057813;28;20291;-67
2023/06/14 05:13:19;;;;;;;4.47;3.60;;;;;;;;;;5051848;28;20219;-67
2023/06/14 05:15:48;;;;;;;3.40;3.13;;;;;;;;;;5055193;28;20335;-67
2023/06/14 05:18:18;;;;;;;4.13;3.75;;;;;;;;;;5043357;28;20275;-67
2023/06/14 05:20:46;;;;;;;5.57;3.40;;;;;;;;;;5060179;28;20219;-67
2023/06/14 05:23:23;;;;;;;4.50;3.50;;;;;;;;;;5055173;28;20202;-67
2023/06/14 05:25:51;;;;;;;4.70;3.50;;;;;;;;;;5067003;28;20249;-68
2023/06/14 05:28:18;;;;;;;3.90;3.50;;;;;;;;;;5059767;28;20211;-67
2023/06/14 05:30:46;;;;;;;3.58;3.28;;;;;;;;;;5060112;28;20208;-68
2023/06/14 05:33:14;;;;;;;3.97;3.42;;;;;;;;;;5060878;28;20227;-68
2023/06/14 05:35:41;;;;;;;3.78;3.33;;;;;;;;;;5062690;28;20207;-68
2023/06/14 05:38:09;;;;;;;5.43;3.85;;;;;;;;;;5061184;28;20294;-68
2023/06/14 05:40:38;;;;;;;3.60;3.30;;;;;;;;;;5058271;28;20204;-69
2023/06/14 05:43:05;;;;;;;4.03;3.67;;;;;;;;;;5060762;28;20218;-68
2023/06/14 05:45:32;;;;;;;6.65;3.80;;;;;;;;;;5065285;28;20203;-69
2023/06/14 05:47:59;;;;;;;3.70;3.40;;;;;;;;;;5062246;28;20289;-70
2023/06/14 05:50:26;;;;;;;4.35;3.42;;;;;;;;;;5067033;28;20206;-69
2023/06/14 05:52:54;;;;;;;4.93;3.45;;;;;;;;;;5060491;28;20213;-69
2023/06/14 05:55:22;;;;;;;6.13;3.40;;;;;;;;;;5063758;28;20233;-69
2023/06/14 05:57:50;;;;;;;3.95;3.42;;;;;;;;;;5060805;28;20214;-69
2023/06/14 06:00:19;;;;;;;4.97;3.78;;;;;;;;;;5061485;28;20207;-69
2023/06/14 06:02:47;;;;;;;4.85;3.60;;;;;;;;;;5057383;28;20283;-69
2023/06/14 06:05:15;;;;;;;4.57;3.78;;;;;;;;;;5061567;28;20202;-71
2023/06/14 06:07:44;;;;;;;3.50;3.20;;;;;;;;;;5059746;28;20253;-70
2023/06/14 06:10:11;;;;;;;4.65;3.35;;;;;;;;;;5058388;28;20235;-70
2023/06/14 06:12:38;;;;;;;4.28;3.17;;;;;;;;;;5062271;28;20211;-71
2023/06/14 06:15:11;;;;;;;3.33;2.97;;;;;;;;;;5063869;28;20237;-70
2023/06/14 06:17:39;;;;;;;6.32;3.80;;;;;;;;;;5061680;28;20200;-71
2023/06/14 06:20:08;;;;;;;3.80;3.50;;;;;;;;;;5059154;28;20215;-70
2023/06/14 06:22:35;;;;;;;4.35;3.20;;;;;;;;;;5067770;28;20207;-70
2023/06/14 06:25:02;;;;;;;4.85;3.53;;;;;;;;;;5065574;28;20198;-70
2023/06/14 06:27:29;;;;;;;3.60;3.30;;;;;;;;;;5057511;28;20207;-71
2023/06/14 06:29:57;;;;;;;3.50;3.20;;;;;;;;;;5060876;28;20214;-71
2023/06/14 06:32:25;;;;;;;6.15;3.05;;;;;;;;;;5058248;28;20211;-71
2023/06/14 06:34:52;;;;;;;3.83;3.20;;;;;;;;;;5061731;28;20219;-71
2023/06/14 06:37:20;;;;;;;4.20;3.58;;;;;;;;;;5066054;28;20207;-71
2023/06/14 06:39:47;;;;;;;4.15;3.40;;;;;;;;;;5057760;28;20302;-71
2023/06/14 06:42:14;;;;;;;3.90;3.00;;;;;;;;;;5060407;28;20243;-71
2023/06/14 06:44:42;;;;;;;5.43;3.10;;;;;;;;;;5056480;28;20336;-69
2023/06/14 06:47:09;;;;;;;3.85;3.55;;;;;;;;;;5058273;28;20217;-69
2023/06/14 06:49:38;;;;;;;5.72;3.13;;;;;;;;;;5058247;28;20194;-69
2023/06/14 06:52:06;;;;;;;4.80;3.30;;;;;;;;;;5056793;28;20203;-69
2023/06/14 06:54:33;;;;;;;3.90;3.30;;;;;;;;;;5054218;28;20223;-69
2023/06/14 06:57:01;;;;;;;3.90;3.00;;;;;;;;;;5061020;28;20213;-69
2023/06/14 06:59:29;;;;;;;3.80;3.33;;;;;;;;;;5060894;28;20218;-69
2023/06/14 07:01:59;;;;;;;6.03;3.42;;;;;;;;;;5055624;28;20203;-70
2023/06/14 07:04:34;;;;;;;5.03;3.00;;;;;;;;;;5059939;28;20206;-68
2023/06/14 07:07:05;;;;;;;5.90;3.25;;;;;;;;;;5063865;28;20277;-70
2023/06/14 07:09:33;;;;;;;5.05;3.33;;;;;;;;;;5055312;28;20234;-69
2023/06/14 07:12:01;;;;;;;3.58;3.25;;;;;;;;;;5065142;28;20209;-69
2023/06/14 07:14:31;;;;;;;3.40;3.10;;;;;;;;;;5057813;28;20211;-69
2023/06/14 07:17:00;;;;;;;3.75;3.25;;;;;;;;;;5056382;28;20198;-69
2023/06/14 07:19:28;;;;;;;3.50;2.90;;;;;;;;;;5061097;28;20206;-69
2023/06/14 07:21:58;;;;;;;7.07;3.40;;;;;;;;;;5060733;28;20210;-69
2023/06/14 07:24:29;;;;;;;5.30;3.13;;;;;;;;;;5055021;28;20217;-69
2023/06/14 07:26:58;;;;;;;4.90;3.40;;;;;;;;;;5048007;28;20207;-69
2023/06/14 07:29:31;;;;;;;3.42;3.13;;;;;;;;;;5065657;28;20207;-69
2023/06/14 07:32:05;;;;;;;3.35;3.08;;;;;;;;;;5065246;28;20260;-69
2023/06/14 07:34:36;;;;;;;4.07;3.30;;;;;;;;;;5061086;28;20215;-70
2023/06/14 07:37:04;;;;;;;3.08;2.78;;;;;;;;;;5064293;28;20210;-69
2023/06/14 07:42:14;;;;;;;6.07;3.20;;;;;;;;;;5055082;28;20199;-69
2023/06/14 07:44:46;;;;;;;4.45;3.13;;;;;;;;;;5061370;28;20282;-69
2023/06/14 07:47:15;;;;;;;5.82;3.30;;;;;;;;;;5060041;28;20213;-70
2023/06/14 07:49:46;;;;;;;4.72;3.20;;;;;;;;;;5038741;28;20202;-69
2023/06/14 07:52:20;;;;;;;3.92;3.20;;;;;;;;;;5051733;28;20265;-70
2023/06/14 07:54:55;;;;;;;4.05;2.90;;;;;;;;;;5050656;28;20219;-70
2023/06/14 07:57:26;;;;;;;3.60;3.30;;;;;;;;;;5056418;28;20210;-69
2023/06/14 07:59:53;;;;;;;6.07;3.22;;;;;;;;;;5060804;28;20208;-70
2023/06/14 08:02:21;;;;;;;4.03;2.65;;;;;;;;;;5058805;28;20211;-70
2023/06/14 08:04:50;;;;;;;4.72;3.22;;;;;;;;;;5062242;28;20203;-70
2023/06/14 08:07:25;;;;;;;3.42;2.95;;;;;;;;;;5068591;28;20210;-69
2023/06/14 08:09:54;;;;;;;3.75;3.42;;;;;;;;;;5049258;28;20227;-69
2023/06/14 08:12:25;;;;;;;5.10;3.38;;;;;;;;;;5067123;28;20240;-69
2023/06/14 08:14:53;;;;;;;4.28;3.17;;;;;;;;;;5056253;28;20230;-69
2023/06/14 08:17:23;;;;;;;3.17;2.85;;;;;;;;;;5060618;28;20250;-70
2023/06/14 08:19:54;;;;;;;4.43;3.05;;;;;;;;;;5059335;28;20207;-69
2023/06/14 08:22:24;;;;;;;3.55;2.80;;;;;;;;;;5057923;28;20209;-69
2023/06/14 08:24:59;;;;;;;3.42;3.10;;;;;;;;;;5052268;28;20191;-69
2023/06/14 08:27:27;;;;;;;4.40;3.00;;;;;;;;;;5060591;28;20194;-70
2023/06/14 08:29:55;;;;;;;5.85;3.10;;;;;;;;;;5057034;28;20200;-69
2023/06/14 08:32:23;;;;;;;6.50;3.00;;;;;;;;;;5063389;28;20203;-69
2023/06/14 08:34:53;;;;;;;4.47;2.75;;;;;;;;;;5059803;28;20226;-71
2023/06/14 08:37:21;;;;;;;3.67;2.80;;;;;;;;;;5061273;28;20207;-69
2023/06/14 08:39:50;;;;;;;3.67;3.08;;;;;;;;;;5065337;28;20203;-69
2023/06/14 08:42:20;;;;;;;4.03;3.15;;;;;;;;;;5039837;28;20203;-70
2023/06/14 08:44:48;;;;;;;5.28;3.03;;;;;;;;;;5060896;28;20205;-69
2023/06/14 08:47:18;;;;;;;5.43;2.80;;;;;;;;;;5062130;28;20210;-69
2023/06/14 08:49:48;;;;;;;3.60;3.00;;;;;;;;;;5058376;28;20268;-69
2023/06/14 08:52:18;;;;;;;3.42;2.83;;;;;;;;;;5061934;28;20268;-69
2023/06/14 08:54:48;;;;;;;4.22;3.30;;;;;;;;;;5065519;28;20267;-70
2023/06/14 08:57:20;;;;;;;3.95;2.85;;;;;;;;;;5055569;28;20214;-70
2023/06/14 08:59:53;;;;;;;3.88;2.90;;;;;;;;;;5060670;28;20220;-70
2023/06/14 09:02:22;;;;;;;4.05;2.78;;;;;;;;;;5063262;28;20207;-70
2023/06/14 09:04:50;;;;;;;4.38;3.15;;;;;;;;;;5061306;28;20195;-71
2023/06/14 09:07:17;;;;;;;5.75;3.20;;;;;;;;;;5059102;28;20207;-70
2023/06/14 09:09:45;;;;;;;5.00;2.92;;;;;;;;;;5057260;28;20285;-70
2023/06/14 09:12:13;;;;;;;4.15;3.45;;;;;;;;;;5068963;28;20247;-71
2023/06/14 09:14:42;;;;;;;4.75;3.10;;;;;;;;;;5064446;28;20219;-70
2023/06/14 09:17:15;;;;;;;4.57;3.00;;;;;;;;;;5064952;28;20218;-70
2023/06/14 09:19:42;;;;;;;2.78;2.53;;;;;;;;;;5063781;28;20260;-72
2023/06/14 09:22:11;;;;;;;6.60;3.20;;;;;;;;;;5062978;28;20214;-71
2023/06/14 09:24:39;;;;;;;3.38;3.17;;;;;;;;;;5055305;28;20202;-70
2023/06/14 09:27:06;;;;;;;4.18;2.90;;;;;;;;;;5056151;28;20298;-70
2023/06/14 09:29:33;;;;;;;7.13;2.85;;;;;;;;;;5061406;28;20207;-70
2023/06/14 09:32:01;;;;;;;3.67;2.90;;;;;;;;;;5062804;28;20207;-69
2023/06/14 09:34:29;;;;;;;4.30;3.10;;;;;;;;;;5065482;28;20211;-68
2023/06/14 09:36:56;;;;;;;3.20;2.97;;;;;;;;;;5063107;28;20200;-69
2023/06/14 09:39:24;;;;;;;3.55;3.10;;;;;;;;;;5062957;28;20298;-70
2023/06/14 09:41:52;;;;;;;3.53;3.08;;;;;;;;;;5062187;28;20200;-70
2023/06/14 09:44:20;;;;;;;3.67;3.38;;;;;;;;;;5061814;28;20286;-69
2023/06/14 09:46:47;;;;;;;4.07;2.80;;;;;;;;;;5061549;28;20419;-70
2023/06/14 09:49:14;;;;;;;4.18;2.97;;;;;;;;;;5061351;28;20199;-69
2023/06/14 09:51:45;;;;;;;3.70;2.85;;;;;;;;;;5061646;28;20238;-70
2023/06/14 09:54:16;;;;;;;5.28;3.47;;;;;;;;;;5059783;28;20199;-70
2023/06/14 09:56:46;;;;;;;4.32;2.95;;;;;;;;;;5060662;28;20219;-70
2023/06/14 09:59:14;;;;;;;3.80;3.08;;;;;;;;;;5061421;28;20210;-69
2023/06/14 10:01:43;;;;;;;4.40;3.17;;;;;;;;;;5064245;28;20203;-69
2023/06/14 10:04:11;;;;;;;6.55;3.38;;;;;;;;;;5059173;28;20211;-70
2023/06/14 10:06:41;;;;;;;5.47;3.00;;;;;;;;;;5063467;28;20201;-69
2023/06/14 10:09:10;;;;;;;5.57;3.00;;;;;;;;;;5060234;28;20211;-69
2023/06/14 10:11:43;;;;;;;4.90;2.58;;;;;;;;;;5061426;28;20226;-65
2023/06/14 10:14:11;;;;;;;3.50;3.10;;;;;;;;;;5062263;28;20207;-69
2023/06/14 10:16:40;;;;;;;5.03;3.25;;;;;;;;;;5063345;28;20229;-74
2023/06/14 10:19:12;;;;;;;4.57;2.90;;;;;;;;;;5063227;28;20208;-73
2023/06/14 10:21:45;;;;;;;3.13;2.83;;;;;;;;;;5063225;28;20198;-72
2023/06/14 10:24:15;;;;;;;5.38;2.55;;;;;;;;;;5062941;28;20393;-72
2023/06/14 10:26:51;;;;;;;4.63;3.20;;;;;;;;;;5066477;28;20205;-72
2023/06/14 10:29:19;;;;;;;4.15;2.70;;;;;;;;;;5066864;28;20203;-72
2023/06/14 10:31:46;;;;;;;4.13;2.65;;;;;;;;;;5064272;28;20207;-73
2023/06/14 10:34:23;;;;;;;4.40;2.75;;;;;;;;;;5059946;28;20232;-73
2023/06/14 10:37:01;;;;;;;6.95;3.03;;;;;;;;;;5061590;28;20252;-73
2023/06/14 10:39:30;;;;;;;3.45;2.92;;;;;;;;;;5069240;28;20273;-73
2023/06/14 10:41:58;;;;;;;3.08;2.78;;;;;;;;;;5059773;28;20213;-72
2023/06/14 10:44:41;;;;;;;3.25;2.50;;;;;;;;;;5063140;28;20200;-72
2023/06/14 10:47:09;;;;;;;3.70;2.50;;;;;;;;;;5061189;28;20222;-72
2023/06/14 10:49:44;;;;;;;4.63;2.60;;;;;;;;;;5065691;28;20206;-71
2023/06/14 10:52:19;;;;;;;4.32;2.67;;;;;;;;;;5060079;28;20198;-70
2023/06/14 10:55:09;;;;;;;4.05;2.58;;;;;;;;;;5062239;28;20274;-69
2023/06/14 10:57:36;;;;;;;2.70;2.50;;;;;;;;;;5060759;28;20292;-72
2023/06/14 11:00:12;;;;;;;5.35;2.70;;;;;;;;;;5066789;28;20199;-73
2023/06/14 11:02:48;;;;;;;4.55;2.63;;;;;;;;;;5057970;28;20199;-70
2023/06/14 11:05:16;;;;;;;4.97;2.67;;;;;;;;;;5064111;28;20213;-70
2023/06/14 11:07:50;;;;;;;3.75;2.45;;;;;;;;;;5063866;28;20210;-71
2023/06/14 11:10:25;;;;;;;3.58;2.40;;;;;;;;;;5056714;28;20230;-72
2023/06/14 11:12:53;;;;;;;3.97;2.78;;;;;;;;;;5058914;28;20206;-72
2023/06/14 11:15:21;;;;;;;3.08;2.80;;;;;;;;;;5057602;28;20301;-72
2023/06/14 11:17:53;;;;;;;4.82;2.72;;;;;;;;;;5062797;28;20204;-72
2023/06/14 11:20:20;;;;;;;4.63;2.20;;;;;;;;;;5054089;28;20202;-72
2023/06/14 11:22:49;;;;;;;3.30;2.42;;;;;;;;;;5060592;28;20198;-72
2023/06/14 11:25:16;;;;;;;3.95;2.58;;;;;;;;;;5067179;28;20201;-72
2023/06/14 11:27:45;;;;;;;3.90;2.70;;;;;;;;;;5062602;28;20199;-70
2023/06/14 11:30:13;;;;;;;4.35;2.42;;;;;;;;;;5061232;28;20202;-69
2023/06/14 11:32:40;;;;;;;3.80;2.88;;;;;;;;;;5054987;28;20260;-69
2023/06/14 11:35:08;;;;;;;3.33;2.35;;;;;;;;;;5064002;28;20203;-69
2023/06/14 11:37:38;;;;;;;2.42;2.22;;;;;;;;;;5063241;28;20205;-69
2023/06/14 11:40:08;;;;;;;4.68;2.50;;;;;;;;;;5061821;28;20228;-69
2023/06/14 11:42:35;;;;;;;3.80;2.50;;;;;;;;;;5059664;28;20203;-71
2023/06/14 11:45:05;;;;;;;2.60;2.30;;;;;;;;;;5057769;28;20212;-69
2023/06/14 11:47:33;;;;;;;3.17;2.30;;;;;;;;;;5064351;28;20213;-71
2023/06/14 11:50:00;;;;;;;2.55;2.30;;;;;;;;;;5065953;28;20293;-71
2023/06/14 11:52:27;;;;;;;4.22;2.47;;;;;;;;;;5063352;28;20207;-69
2023/06/14 11:54:55;;;;;;;2.80;2.20;;;;;;;;;;5060543;28;20201;-70
2023/06/14 11:57:22;;;;;;;5.32;2.53;;;;;;;;;;5063621;28;20242;-69
2023/06/14 11:59:50;;;;;;;3.30;2.13;;;;;;;;;;5064967;28;20215;-71
2023/06/14 12:02:19;;;;;;;4.13;2.35;;;;;;;;;;5057966;28;20202;-70
2023/06/14 12:04:48;;;;;;;3.00;2.20;;;;;;;;;;5064952;28;20206;-71
2023/06/14 12:07:17;;;;;;;3.28;1.95;;;;;;;;;;5066617;28;20213;-72
2023/06/14 12:10:07;;;;;;;3.05;2.20;;;;;;;;;;5065883;28;20203;-70
2023/06/14 12:12:36;;;;;;;4.57;2.40;;;;;;;;;;5057782;28;20206;-70
2023/06/14 12:15:05;;;;;;;2.85;2.28;;;;;;;;;;5061627;28;20204;-64
2023/06/14 12:17:35;;;;;;;4.10;2.00;;;;;;;;;;5063588;28;20203;-64
2023/06/14 12:20:10;;;;;;;4.85;2.28;;;;;;;;;;5061809;28;20207;-65
2023/06/14 12:22:38;;;;;;;2.38;2.17;;;;;;;;;;5062302;28;20289;-65
2023/06/14 12:25:05;;;;;;;2.90;2.05;;;;;;;;;;5059123;28;20249;-65
2023/06/14 12:27:33;;;;;;;2.55;2.10;;;;;;;;;;5060175;28;20195;-64
2023/06/14 12:30:01;;;;;;;3.50;2.03;;;;;;;;;;5058725;28;20235;-65
2023/06/14 12:32:28;;;;;;;2.65;2.00;;;;;;;;;;5057274;28;20214;-64
2023/06/14 12:34:56;;;;;;;3.55;2.17;;;;;;;;;;5054667;28;20203;-64
2023/06/14 12:37:24;;;;;;;4.60;2.25;;;;;;;;;;5063188;28;20226;-65
2023/06/14 12:39:51;;;;;;;4.88;2.10;;;;;;;;;;5066268;28;20203;-64
2023/06/14 12:42:19;;;;;;;2.95;1.90;;;;;;;;;;5066952;28;20225;-64
2023/06/14 12:44:46;;;;;;;2.30;2.10;;;;;;;;;;5059725;28;20210;-64
2023/06/14 12:47:13;;;;;;;2.35;2.00;;;;;;;;;;5065774;28;20195;-67
2023/06/14 12:49:42;;;;;;;2.83;1.90;;;;;;;;;;5067637;28;20203;-65
2023/06/14 12:52:11;;;;;;;1.90;1.80;;;;;;;;;;5068042;28;20203;-64
2023/06/14 12:54:39;;;;;;;3.25;2.00;;;;;;;;;;5063539;28;20230;-67
2023/06/14 12:57:06;;;;;;;3.45;2.10;;;;;;;;;;5067283;28;20219;-65
2023/06/14 12:59:33;;;;;;;2.35;2.13;;;;;;;;;;5066894;28;20199;-66
2023/06/14 13:02:01;;;;;;;3.72;1.85;;;;;;;;;;5067421;28;20206;-67
2023/06/14 13:04:29;;;;;;;3.75;1.95;;;;;;;;;;5062609;28;20202;-65
2023/06/14 13:06:56;;;;;;;3.13;2.10;;;;;;;;;;5063737;28;20221;-66
2023/06/14 13:09:25;;;;;;;2.08;1.85;;;;;;;;;;5066999;28;20203;-64
2023/06/14 13:11:52;;;;;;;5.13;2.13;;;;;;;;;;5061454;28;20226;-65
2023/06/14 13:14:19;;;;;;;2.15;1.77;;;;;;;;;;5064248;28;20208;-65
2023/06/14 13:16:46;;;;;;;4.65;2.25;;;;;;;;;;5062980;28;20242;-65
2023/06/14 13:19:13;;;;;;;3.47;1.80;;;;;;;;;;5065449;28;20206;-65
2023/06/14 13:21:40;;;;;;;2.00;1.90;;;;;;;;;;5063400;28;20214;-64
2023/06/14 13:24:07;;;;;;;2.08;1.80;;;;;;;;;;5062867;28;20210;-64
2023/06/14 13:26:36;;;;;;;3.47;2.00;;;;;;;;;;5065046;28;20195;-64
2023/06/14 13:29:03;;;;;;;3.03;1.80;;;;;;;;;;5065996;28;20202;-65
2023/06/14 13:31:31;;;;;;;3.63;2.00;;;;;;;;;;5068667;28;20203;-64
2023/06/14 13:33:58;;;;;;;1.95;1.75;;;;;;;;;;5060869;28;20202;-65
2023/06/14 13:36:25;;;;;;;2.05;1.88;;;;;;;;;;5065721;28;20221;-64
2023/06/14 13:38:54;;;;;;;2.03;1.80;;;;;;;;;;5059894;28;20207;-64
2023/06/14 13:41:21;;;;;;;3.45;1.90;;;;;;;;;;5063283;28;20206;-64
2023/06/14 13:43:50;;;;;;;2.08;1.90;;;;;;;;;;5059658;28;20203;-66
2023/06/14 13:46:17;;;;;;;2.17;1.90;;;;;;;;;;5065183;28;20202;-65
2023/06/14 13:48:47;;;;;;;3.10;1.75;;;;;;;;;;5066693;28;20214;-65
2023/06/14 13:51:14;;;;;;;4.50;1.90;;;;;;;;;;5071154;28;20203;-64
2023/06/14 13:53:41;;;;;;;1.92;1.83;;;;;;;;;;5068685;28;20206;-65
2023/06/14 13:56:08;;;;;;;4.93;2.10;;;;;;;;;;5065535;28;20223;-65
2023/06/14 13:58:36;;;;;;;2.00;1.90;;;;;;;;;;5069271;28;20202;-64
2023/06/14 14:01:05;;;;;;;3.25;1.83;;;;;;;;;;5069126;28;20209;-64
2023/06/14 14:03:32;;;;;;;2.85;1.85;;;;;;;;;;5071133;28;20203;-65
2023/06/14 14:06:00;;;;;;;2.25;2.05;;;;;;;;;;5074524;28;20202;-65
2023/06/14 14:08:27;;;;;;;2.88;1.90;;;;;;;;;;5068327;28;20201;-65
2023/06/14 14:10:55;;;;;;;2.50;2.03;;;;;;;;;;5068945;28;20230;-64
2023/06/14 14:13:23;;;;;;;1.80;1.70;;;;;;;;;;5067281;28;20248;-64
2023/06/14 14:15:50;;;;;;;3.30;2.00;;;;;;;;;;5066691;28;20206;-65
2023/06/14 14:18:20;;;;;;;2.00;1.90;;;;;;;;;;5070204;28;20195;-65
2023/06/14 14:20:47;;;;;;;1.85;1.73;;;;;;;;;;5070562;28;20252;-64
2023/06/14 14:23:14;;;;;;;2.65;1.73;;;;;;;;;;5060519;28;20206;-65
2023/06/14 14:25:42;;;;;;;3.15;1.70;;;;;;;;;;5063243;28;20213;-65
2023/06/14 14:28:11;;;;;;;2.35;1.98;;;;;;;;;;5064747;28;20245;-64
2023/06/14 14:30:39;;;;;;;4.88;1.95;;;;;;;;;;5063914;28;20344;-64
2023/06/14 14:33:07;;;;;;;2.28;2.00;;;;;;;;;;5068002;28;20209;-64
2023/06/14 14:35:35;;;;;;;2.40;1.85;;;;;;;;;;5069624;28;20202;-64
2023/06/14 14:38:04;;;;;;;3.17;1.77;;;;;;;;;;5065705;28;20238;-66
2023/06/14 14:40:32;;;;;;;3.10;1.70;;;;;;;;;;5060380;28;20211;-64
2023/06/14 14:42:59;;;;;;;2.92;1.83;;;;;;;;;;5067304;28;20213;-65
2023/06/14 14:45:26;;;;;;;2.92;1.92;;;;;;;;;;5067804;28;20202;-64
2023/06/14 14:47:53;;;;;;;1.88;1.75;;;;;;;;;;5068966;28;20205;-65
2023/06/14 14:50:20;;;;;;;2.47;1.70;;;;;;;;;;5068504;28;20199;-64
2023/06/14 14:52:49;;;;;;;3.15;1.77;;;;;;;;;;5069408;28;20201;-65
2023/06/14 14:55:16;;;;;;;2.80;1.77;;;;;;;;;;5061211;28;20199;-64
2023/06/14 14:57:43;;;;;;;2.88;1.75;;;;;;;;;;5063038;28;20225;-65